sensor_id;sensor_type;location;lat;lon;timestamp;P1;durP1;ratioP1;P2;durP2;ratioP2
50495;SDS011;38806;51.554;5.704;2023-11-19T00:01:21;12.30;;;8.17;;
50495;SDS011;38806;51.554;5.704;2023-11-19T00:03:21;11.00;;;6.88;;
50495;SDS011;38806;51.554;5.704;2023-11-19T00:05:21;24.25;;;9.90;;
50495;SDS011;38806;51.554;5.704;2023-11-19T00:07:21;19.70;;;7.60;;
50495;SDS011;38806;51.554;5.704;2023-11-19T00:09:21;16.73;;;7.40;;
50495;SDS011;38806;51.554;5.704;2023-11-19T00:11:22;10.55;;;6.95;;
50495;SDS011;38806;51.554;5.704;2023-11-19T00:13:22;12.43;;;7.43;;
50495;SDS011;38806;51.554;5.704;2023-11-19T00:15:23;10.48;;;6.90;;
50495;SDS011;38806;51.554;5.704;2023-11-19T00:17:24;12.55;;;7.13;;
50495;SDS011;38806;51.554;5.704;2023-11-19T00:19:24;11.10;;;6.47;;
50495;SDS011;38806;51.554;5.704;2023-11-19T00:21:24;11.60;;;6.70;;
50495;SDS011;38806;51.554;5.704;2023-11-19T00:23:28;11.02;;;5.78;;
50495;SDS011;38806;51.554;5.704;2023-11-19T00:25:28;10.07;;;6.60;;
50495;SDS011;38806;51.554;5.704;2023-11-19T00:27:29;15.73;;;7.28;;
50495;SDS011;38806;51.554;5.704;2023-11-19T00:29:29;14.38;;;7.88;;
50495;SDS011;38806;51.554;5.704;2023-11-19T00:31:29;9.47;;;5.37;;
50495;SDS011;38806;51.554;5.704;2023-11-19T00:33:29;13.43;;;6.00;;
50495;SDS011;38806;51.554;5.704;2023-11-19T00:35:31;12.25;;;5.78;;
50495;SDS011;38806;51.554;5.704;2023-11-19T00:37:32;11.02;;;6.55;;
50495;SDS011;38806;51.554;5.704;2023-11-19T00:39:32;13.32;;;5.45;;
50495;SDS011;38806;51.554;5.704;2023-11-19T00:41:32;7.88;;;4.65;;
50495;SDS011;38806;51.554;5.704;2023-11-19T00:43:32;9.45;;;4.82;;
50495;SDS011;38806;51.554;5.704;2023-11-19T00:45:33;10.43;;;5.45;;
50495;SDS011;38806;51.554;5.704;2023-11-19T00:47:33;10.60;;;5.18;;
50495;SDS011;38806;51.554;5.704;2023-11-19T00:49:35;10.75;;;4.00;;
50495;SDS011;38806;51.554;5.704;2023-11-19T00:51:35;9.05;;;4.28;;
50495;SDS011;38806;51.554;5.704;2023-11-19T00:53:35;12.27;;;4.00;;
50495;SDS011;38806;51.554;5.704;2023-11-19T00:55:35;11.87;;;4.10;;
50495;SDS011;38806;51.554;5.704;2023-11-19T00:57:35;7.33;;;3.37;;
50495;SDS011;38806;51.554;5.704;2023-11-19T00:59:36;9.45;;;4.65;;
50495;SDS011;38806;51.554;5.704;2023-11-19T01:01:36;9.75;;;4.20;;
50495;SDS011;38806;51.554;5.704;2023-11-19T01:03:36;12.57;;;4.97;;
50495;SDS011;38806;51.554;5.704;2023-11-19T01:05:36;9.30;;;3.80;;
50495;SDS011;38806;51.554;5.704;2023-11-19T01:07:36;6.90;;;3.97;;
50495;SDS011;38806;51.554;5.704;2023-11-19T01:09:37;12.07;;;5.03;;
50495;SDS011;38806;51.554;5.704;2023-11-19T01:11:37;8.23;;;3.50;;
50495;SDS011;38806;51.554;5.704;2023-11-19T01:13:37;8.50;;;4.40;;
50495;SDS011;38806;51.554;5.704;2023-11-19T01:15:37;7.60;;;3.13;;
50495;SDS011;38806;51.554;5.704;2023-11-19T01:17:37;9.73;;;4.65;;
50495;SDS011;38806;51.554;5.704;2023-11-19T01:19:38;6.53;;;3.20;;
50495;SDS011;38806;51.554;5.704;2023-11-19T01:21:38;10.53;;;3.90;;
50495;SDS011;38806;51.554;5.704;2023-11-19T01:23:38;14.97;;;6.40;;
50495;SDS011;38806;51.554;5.704;2023-11-19T01:25:38;11.32;;;4.18;;
50495;SDS011;38806;51.554;5.704;2023-11-19T01:27:38;8.05;;;3.28;;
50495;SDS011;38806;51.554;5.704;2023-11-19T01:29:39;7.13;;;3.25;;
50495;SDS011;38806;51.554;5.704;2023-11-19T01:31:40;18.52;;;4.90;;
50495;SDS011;38806;51.554;5.704;2023-11-19T01:33:40;13.23;;;3.75;;
50495;SDS011;38806;51.554;5.704;2023-11-19T01:35:41;11.82;;;4.40;;
50495;SDS011;38806;51.554;5.704;2023-11-19T01:37:41;20.60;;;6.03;;
50495;SDS011;38806;51.554;5.704;2023-11-19T01:39:44;10.00;;;3.47;;
50495;SDS011;38806;51.554;5.704;2023-11-19T01:41:45;10.77;;;3.72;;
50495;SDS011;38806;51.554;5.704;2023-11-19T01:43:45;14.17;;;4.47;;
50495;SDS011;38806;51.554;5.704;2023-11-19T01:45:47;8.10;;;4.07;;
50495;SDS011;38806;51.554;5.704;2023-11-19T01:47:47;11.43;;;3.83;;
50495;SDS011;38806;51.554;5.704;2023-11-19T01:49:47;10.98;;;4.15;;
50495;SDS011;38806;51.554;5.704;2023-11-19T01:51:47;8.43;;;4.22;;
50495;SDS011;38806;51.554;5.704;2023-11-19T01:53:48;13.02;;;4.03;;
50495;SDS011;38806;51.554;5.704;2023-11-19T01:55:49;14.75;;;5.10;;
50495;SDS011;38806;51.554;5.704;2023-11-19T01:57:50;11.82;;;5.00;;
50495;SDS011;38806;51.554;5.704;2023-11-19T01:59:51;11.75;;;4.15;;
50495;SDS011;38806;51.554;5.704;2023-11-19T02:01:55;17.25;;;5.03;;
50495;SDS011;38806;51.554;5.704;2023-11-19T02:03:55;13.65;;;4.65;;
50495;SDS011;38806;51.554;5.704;2023-11-19T02:05:55;18.33;;;4.95;;
50495;SDS011;38806;51.554;5.704;2023-11-19T02:07:55;11.00;;;3.90;;
50495;SDS011;38806;51.554;5.704;2023-11-19T02:09:56;14.70;;;4.80;;
50495;SDS011;38806;51.554;5.704;2023-11-19T02:11:59;17.95;;;4.68;;
50495;SDS011;38806;51.554;5.704;2023-11-19T02:13:59;13.68;;;5.57;;
50495;SDS011;38806;51.554;5.704;2023-11-19T02:15:59;23.58;;;5.75;;
50495;SDS011;38806;51.554;5.704;2023-11-19T02:18:19;12.00;;;4.03;;
50495;SDS011;38806;51.554;5.704;2023-11-19T02:20:20;13.38;;;4.15;;
50495;SDS011;38806;51.554;5.704;2023-11-19T02:22:20;12.40;;;6.50;;
50495;SDS011;38806;51.554;5.704;2023-11-19T02:24:20;15.77;;;4.60;;
50495;SDS011;38806;51.554;5.704;2023-11-19T02:26:24;11.13;;;4.00;;
50495;SDS011;38806;51.554;5.704;2023-11-19T02:28:28;17.15;;;4.70;;
50495;SDS011;38806;51.554;5.704;2023-11-19T02:30:28;13.05;;;5.07;;
50495;SDS011;38806;51.554;5.704;2023-11-19T02:32:28;12.63;;;4.43;;
50495;SDS011;38806;51.554;5.704;2023-11-19T02:34:30;17.58;;;4.70;;
50495;SDS011;38806;51.554;5.704;2023-11-19T02:36:31;13.27;;;4.40;;
50495;SDS011;38806;51.554;5.704;2023-11-19T02:38:32;13.45;;;4.22;;
50495;SDS011;38806;51.554;5.704;2023-11-19T02:40:32;21.40;;;5.13;;
50495;SDS011;38806;51.554;5.704;2023-11-19T02:42:32;10.18;;;4.97;;
50495;SDS011;38806;51.554;5.704;2023-11-19T02:44:33;13.30;;;4.47;;
50495;SDS011;38806;51.554;5.704;2023-11-19T02:46:34;7.55;;;4.15;;
50495;SDS011;38806;51.554;5.704;2023-11-19T02:48:34;15.73;;;4.88;;
50495;SDS011;38806;51.554;5.704;2023-11-19T02:50:37;22.17;;;4.85;;
50495;SDS011;38806;51.554;5.704;2023-11-19T02:52:37;17.93;;;6.30;;
50495;SDS011;38806;51.554;5.704;2023-11-19T02:54:37;12.40;;;4.30;;
50495;SDS011;38806;51.554;5.704;2023-11-19T02:56:41;18.47;;;5.93;;
50495;SDS011;38806;51.554;5.704;2023-11-19T02:58:42;13.13;;;6.18;;
50495;SDS011;38806;51.554;5.704;2023-11-19T03:00:44;11.52;;;4.53;;
50495;SDS011;38806;51.554;5.704;2023-11-19T03:02:52;15.70;;;5.45;;
50495;SDS011;38806;51.554;5.704;2023-11-19T03:05:10;25.05;;;5.30;;
50495;SDS011;38806;51.554;5.704;2023-11-19T03:07:11;14.10;;;4.90;;
50495;SDS011;38806;51.554;5.704;2023-11-19T03:09:13;20.40;;;7.93;;
50495;SDS011;38806;51.554;5.704;2023-11-19T03:11:13;20.47;;;6.43;;
50495;SDS011;38806;51.554;5.704;2023-11-19T03:13:14;12.05;;;5.50;;
50495;SDS011;38806;51.554;5.704;2023-11-19T03:15:14;17.58;;;5.03;;
50495;SDS011;38806;51.554;5.704;2023-11-19T03:17:14;13.37;;;5.37;;
50495;SDS011;38806;51.554;5.704;2023-11-19T03:19:15;15.87;;;5.83;;
50495;SDS011;38806;51.554;5.704;2023-11-19T03:21:15;11.52;;;4.93;;
50495;SDS011;38806;51.554;5.704;2023-11-19T03:23:15;17.98;;;6.10;;
50495;SDS011;38806;51.554;5.704;2023-11-19T03:25:15;20.83;;;5.22;;
50495;SDS011;38806;51.554;5.704;2023-11-19T03:27:16;17.55;;;5.70;;
50495;SDS011;38806;51.554;5.704;2023-11-19T03:29:16;29.13;;;6.20;;
50495;SDS011;38806;51.554;5.704;2023-11-19T03:31:16;15.55;;;6.07;;
50495;SDS011;38806;51.554;5.704;2023-11-19T03:33:17;14.35;;;4.93;;
50495;SDS011;38806;51.554;5.704;2023-11-19T03:35:17;21.97;;;7.57;;
50495;SDS011;38806;51.554;5.704;2023-11-19T03:37:17;30.35;;;9.30;;
50495;SDS011;38806;51.554;5.704;2023-11-19T03:39:17;17.88;;;6.00;;
50495;SDS011;38806;51.554;5.704;2023-11-19T03:41:17;20.20;;;5.43;;
50495;SDS011;38806;51.554;5.704;2023-11-19T03:43:17;24.37;;;8.03;;
50495;SDS011;38806;51.554;5.704;2023-11-19T03:45:19;25.13;;;6.28;;
50495;SDS011;38806;51.554;5.704;2023-11-19T03:47:19;24.45;;;6.57;;
50495;SDS011;38806;51.554;5.704;2023-11-19T03:49:20;25.08;;;7.70;;
50495;SDS011;38806;51.554;5.704;2023-11-19T03:51:20;18.48;;;4.95;;
50495;SDS011;38806;51.554;5.704;2023-11-19T03:53:20;23.63;;;8.30;;
50495;SDS011;38806;51.554;5.704;2023-11-19T03:55:20;24.13;;;8.88;;
50495;SDS011;38806;51.554;5.704;2023-11-19T03:57:21;22.38;;;5.88;;
50495;SDS011;38806;51.554;5.704;2023-11-19T03:59:21;27.15;;;7.55;;
50495;SDS011;38806;51.554;5.704;2023-11-19T04:01:22;24.20;;;6.00;;
50495;SDS011;38806;51.554;5.704;2023-11-19T04:03:22;29.48;;;6.90;;
50495;SDS011;38806;51.554;5.704;2023-11-19T04:05:22;18.90;;;6.23;;
50495;SDS011;38806;51.554;5.704;2023-11-19T04:07:22;27.63;;;7.93;;
50495;SDS011;38806;51.554;5.704;2023-11-19T04:09:22;36.75;;;11.75;;
50495;SDS011;38806;51.554;5.704;2023-11-19T04:11:22;29.33;;;7.10;;
50495;SDS011;38806;51.554;5.704;2023-11-19T04:13:23;28.08;;;8.02;;
50495;SDS011;38806;51.554;5.704;2023-11-19T04:15:24;20.92;;;6.22;;
50495;SDS011;38806;51.554;5.704;2023-11-19T04:17:24;27.37;;;7.93;;
50495;SDS011;38806;51.554;5.704;2023-11-19T04:19:24;25.65;;;7.03;;
50495;SDS011;38806;51.554;5.704;2023-11-19T04:21:25;24.40;;;7.20;;
50495;SDS011;38806;51.554;5.704;2023-11-19T04:23:25;25.83;;;7.03;;
50495;SDS011;38806;51.554;5.704;2023-11-19T04:25:25;37.72;;;7.57;;
50495;SDS011;38806;51.554;5.704;2023-11-19T04:27:26;27.40;;;7.45;;
50495;SDS011;38806;51.554;5.704;2023-11-19T04:29:26;35.13;;;8.43;;
50495;SDS011;38806;51.554;5.704;2023-11-19T04:31:29;21.30;;;7.40;;
50495;SDS011;38806;51.554;5.704;2023-11-19T04:33:31;24.77;;;7.85;;
50495;SDS011;38806;51.554;5.704;2023-11-19T04:35:31;20.50;;;7.28;;
50495;SDS011;38806;51.554;5.704;2023-11-19T04:37:31;22.48;;;6.47;;
50495;SDS011;38806;51.554;5.704;2023-11-19T04:39:32;29.60;;;7.18;;
50495;SDS011;38806;51.554;5.704;2023-11-19T04:41:32;35.67;;;8.25;;
50495;SDS011;38806;51.554;5.704;2023-11-19T04:43:32;25.47;;;9.50;;
50495;SDS011;38806;51.554;5.704;2023-11-19T04:45:32;22.40;;;8.85;;
50495;SDS011;38806;51.554;5.704;2023-11-19T04:47:33;22.55;;;6.93;;
50495;SDS011;38806;51.554;5.704;2023-11-19T04:49:34;25.63;;;9.50;;
50495;SDS011;38806;51.554;5.704;2023-11-19T04:51:37;20.80;;;7.27;;
50495;SDS011;38806;51.554;5.704;2023-11-19T04:53:37;21.58;;;7.07;;
50495;SDS011;38806;51.554;5.704;2023-11-19T04:55:38;28.45;;;8.50;;
50495;SDS011;38806;51.554;5.704;2023-11-19T04:57:38;28.25;;;6.43;;
50495;SDS011;38806;51.554;5.704;2023-11-19T04:59:38;37.10;;;8.15;;
50495;SDS011;38806;51.554;5.704;2023-11-19T05:01:38;38.10;;;8.43;;
50495;SDS011;38806;51.554;5.704;2023-11-19T05:03:38;27.55;;;9.68;;
50495;SDS011;38806;51.554;5.704;2023-11-19T05:05:39;29.60;;;7.03;;
50495;SDS011;38806;51.554;5.704;2023-11-19T05:07:39;31.13;;;6.80;;
50495;SDS011;38806;51.554;5.704;2023-11-19T05:09:39;18.95;;;6.55;;
50495;SDS011;38806;51.554;5.704;2023-11-19T05:11:39;45.78;;;7.82;;
50495;SDS011;38806;51.554;5.704;2023-11-19T05:13:40;30.05;;;6.60;;
50495;SDS011;38806;51.554;5.704;2023-11-19T05:15:40;29.05;;;7.55;;
50495;SDS011;38806;51.554;5.704;2023-11-19T05:17:41;18.50;;;6.13;;
50495;SDS011;38806;51.554;5.704;2023-11-19T05:19:41;47.30;;;9.18;;
50495;SDS011;38806;51.554;5.704;2023-11-19T05:21:42;24.00;;;8.83;;
50495;SDS011;38806;51.554;5.704;2023-11-19T05:23:42;20.25;;;7.18;;
50495;SDS011;38806;51.554;5.704;2023-11-19T05:25:43;18.17;;;6.72;;
50495;SDS011;38806;51.554;5.704;2023-11-19T05:27:43;27.95;;;8.77;;
50495;SDS011;38806;51.554;5.704;2023-11-19T05:29:43;26.13;;;6.55;;
50495;SDS011;38806;51.554;5.704;2023-11-19T05:31:43;23.85;;;7.40;;
50495;SDS011;38806;51.554;5.704;2023-11-19T05:33:44;27.85;;;7.15;;
50495;SDS011;38806;51.554;5.704;2023-11-19T05:35:44;28.05;;;7.93;;
50495;SDS011;38806;51.554;5.704;2023-11-19T05:37:44;21.75;;;7.97;;
50495;SDS011;38806;51.554;5.704;2023-11-19T05:39:44;25.15;;;6.80;;
50495;SDS011;38806;51.554;5.704;2023-11-19T05:41:45;25.05;;;6.43;;
50495;SDS011;38806;51.554;5.704;2023-11-19T05:43:45;21.35;;;7.80;;
50495;SDS011;38806;51.554;5.704;2023-11-19T05:45:45;40.92;;;9.10;;
50495;SDS011;38806;51.554;5.704;2023-11-19T05:47:45;37.77;;;7.97;;
50495;SDS011;38806;51.554;5.704;2023-11-19T05:49:46;23.98;;;8.02;;
50495;SDS011;38806;51.554;5.704;2023-11-19T05:51:46;22.13;;;7.60;;
50495;SDS011;38806;51.554;5.704;2023-11-19T05:53:46;32.85;;;6.18;;
50495;SDS011;38806;51.554;5.704;2023-11-19T05:55:46;28.48;;;8.30;;
50495;SDS011;38806;51.554;5.704;2023-11-19T05:57:48;30.65;;;7.60;;
50495;SDS011;38806;51.554;5.704;2023-11-19T05:59:49;24.80;;;6.55;;
50495;SDS011;38806;51.554;5.704;2023-11-19T06:01:49;33.53;;;5.63;;
50495;SDS011;38806;51.554;5.704;2023-11-19T06:03:49;35.88;;;7.82;;
50495;SDS011;38806;51.554;5.704;2023-11-19T06:05:50;25.08;;;5.32;;
50495;SDS011;38806;51.554;5.704;2023-11-19T06:07:50;25.80;;;9.50;;
50495;SDS011;38806;51.554;5.704;2023-11-19T06:09:51;29.23;;;8.05;;
50495;SDS011;38806;51.554;5.704;2023-11-19T06:11:52;22.45;;;7.43;;
50495;SDS011;38806;51.554;5.704;2023-11-19T06:13:52;24.30;;;8.30;;
50495;SDS011;38806;51.554;5.704;2023-11-19T06:15:52;27.25;;;8.25;;
50495;SDS011;38806;51.554;5.704;2023-11-19T06:17:53;33.67;;;8.50;;
50495;SDS011;38806;51.554;5.704;2023-11-19T06:19:53;22.73;;;7.60;;
50495;SDS011;38806;51.554;5.704;2023-11-19T06:21:53;44.47;;;7.40;;
50495;SDS011;38806;51.554;5.704;2023-11-19T06:23:53;33.43;;;6.70;;
50495;SDS011;38806;51.554;5.704;2023-11-19T06:25:54;29.65;;;6.07;;
50495;SDS011;38806;51.554;5.704;2023-11-19T06:27:54;30.90;;;9.43;;
50495;SDS011;38806;51.554;5.704;2023-11-19T06:29:54;31.63;;;8.13;;
50495;SDS011;38806;51.554;5.704;2023-11-19T06:31:55;25.73;;;9.00;;
50495;SDS011;38806;51.554;5.704;2023-11-19T06:33:55;28.33;;;8.38;;
50495;SDS011;38806;51.554;5.704;2023-11-19T06:35:55;29.98;;;7.15;;
50495;SDS011;38806;51.554;5.704;2023-11-19T06:37:55;30.63;;;9.13;;
50495;SDS011;38806;51.554;5.704;2023-11-19T06:39:56;39.38;;;7.47;;
50495;SDS011;38806;51.554;5.704;2023-11-19T06:41:56;30.60;;;8.60;;
50495;SDS011;38806;51.554;5.704;2023-11-19T06:43:56;24.75;;;8.93;;
50495;SDS011;38806;51.554;5.704;2023-11-19T06:45:56;26.08;;;7.38;;
50495;SDS011;38806;51.554;5.704;2023-11-19T06:47:57;23.20;;;6.93;;
50495;SDS011;38806;51.554;5.704;2023-11-19T06:49:58;23.17;;;5.82;;
50495;SDS011;38806;51.554;5.704;2023-11-19T06:51:59;24.73;;;8.13;;
50495;SDS011;38806;51.554;5.704;2023-11-19T06:53:59;27.50;;;11.00;;
50495;SDS011;38806;51.554;5.704;2023-11-19T06:55:59;31.98;;;7.28;;
50495;SDS011;38806;51.554;5.704;2023-11-19T06:58:00;30.05;;;7.65;;
50495;SDS011;38806;51.554;5.704;2023-11-19T07:00:02;27.45;;;9.07;;
50495;SDS011;38806;51.554;5.704;2023-11-19T07:05:07;26.27;;;8.70;;
50495;SDS011;38806;51.554;5.704;2023-11-19T07:07:08;33.83;;;10.55;;
50495;SDS011;38806;51.554;5.704;2023-11-19T07:09:08;20.25;;;7.60;;
50495;SDS011;38806;51.554;5.704;2023-11-19T07:11:11;32.72;;;9.63;;
50495;SDS011;38806;51.554;5.704;2023-11-19T07:13:11;27.33;;;7.30;;
50495;SDS011;38806;51.554;5.704;2023-11-19T07:15:12;26.42;;;7.45;;
50495;SDS011;38806;51.554;5.704;2023-11-19T07:17:12;28.20;;;7.32;;
50495;SDS011;38806;51.554;5.704;2023-11-19T07:19:12;28.83;;;7.97;;
50495;SDS011;38806;51.554;5.704;2023-11-19T07:21:12;28.63;;;7.68;;
50495;SDS011;38806;51.554;5.704;2023-11-19T07:23:14;26.95;;;8.43;;
50495;SDS011;38806;51.554;5.704;2023-11-19T07:25:16;33.95;;;8.95;;
50495;SDS011;38806;51.554;5.704;2023-11-19T07:27:17;36.42;;;8.48;;
50495;SDS011;38806;51.554;5.704;2023-11-19T07:29:19;32.50;;;9.23;;
50495;SDS011;38806;51.554;5.704;2023-11-19T07:31:21;33.38;;;8.82;;
50495;SDS011;38806;51.554;5.704;2023-11-19T07:33:22;31.23;;;8.00;;
50495;SDS011;38806;51.554;5.704;2023-11-19T07:35:22;20.35;;;7.95;;
50495;SDS011;38806;51.554;5.704;2023-11-19T07:37:22;29.15;;;8.35;;
50495;SDS011;38806;51.554;5.704;2023-11-19T07:39:23;29.75;;;10.55;;
50495;SDS011;38806;51.554;5.704;2023-11-19T07:41:23;36.53;;;9.65;;
50495;SDS011;38806;51.554;5.704;2023-11-19T07:43:25;32.42;;;7.07;;
50495;SDS011;38806;51.554;5.704;2023-11-19T07:45:26;20.60;;;7.57;;
50495;SDS011;38806;51.554;5.704;2023-11-19T07:47:27;27.58;;;7.28;;
50495;SDS011;38806;51.554;5.704;2023-11-19T07:49:28;29.73;;;6.53;;
50495;SDS011;38806;51.554;5.704;2023-11-19T07:51:29;28.50;;;7.80;;
50495;SDS011;38806;51.554;5.704;2023-11-19T07:53:29;33.67;;;8.27;;
50495;SDS011;38806;51.554;5.704;2023-11-19T07:55:29;25.42;;;8.60;;
50495;SDS011;38806;51.554;5.704;2023-11-19T07:57:29;32.33;;;10.10;;
50495;SDS011;38806;51.554;5.704;2023-11-19T07:59:30;26.23;;;8.82;;
50495;SDS011;38806;51.554;5.704;2023-11-19T08:01:31;20.00;;;8.60;;
50495;SDS011;38806;51.554;5.704;2023-11-19T08:03:31;29.05;;;7.53;;
50495;SDS011;38806;51.554;5.704;2023-11-19T08:05:32;27.23;;;7.28;;
50495;SDS011;38806;51.554;5.704;2023-11-19T08:07:32;27.73;;;7.10;;
50495;SDS011;38806;51.554;5.704;2023-11-19T08:09:32;32.28;;;8.43;;
50495;SDS011;38806;51.554;5.704;2023-11-19T08:11:33;38.92;;;7.53;;
50495;SDS011;38806;51.554;5.704;2023-11-19T08:13:33;27.20;;;6.97;;
50495;SDS011;38806;51.554;5.704;2023-11-19T08:15:33;30.33;;;8.85;;
50495;SDS011;38806;51.554;5.704;2023-11-19T08:17:33;34.13;;;10.88;;
50495;SDS011;38806;51.554;5.704;2023-11-19T08:19:34;23.77;;;7.40;;
50495;SDS011;38806;51.554;5.704;2023-11-19T08:21:34;27.33;;;7.27;;
50495;SDS011;38806;51.554;5.704;2023-11-19T08:23:34;37.25;;;8.48;;
50495;SDS011;38806;51.554;5.704;2023-11-19T08:25:34;31.27;;;8.05;;
50495;SDS011;38806;51.554;5.704;2023-11-19T08:27:34;25.80;;;8.63;;
50495;SDS011;38806;51.554;5.704;2023-11-19T08:29:35;24.38;;;9.57;;
50495;SDS011;38806;51.554;5.704;2023-11-19T08:31:35;17.27;;;8.63;;
50495;SDS011;38806;51.554;5.704;2023-11-19T08:33:35;23.83;;;9.45;;
50495;SDS011;38806;51.554;5.704;2023-11-19T08:35:35;36.55;;;10.43;;
50495;SDS011;38806;51.554;5.704;2023-11-19T08:37:36;22.27;;;7.63;;
50495;SDS011;38806;51.554;5.704;2023-11-19T08:39:37;19.13;;;6.53;;
50495;SDS011;38806;51.554;5.704;2023-11-19T08:41:37;30.50;;;7.95;;
50495;SDS011;38806;51.554;5.704;2023-11-19T08:43:39;25.65;;;5.70;;
50495;SDS011;38806;51.554;5.704;2023-11-19T08:45:40;23.80;;;10.75;;
50495;SDS011;38806;51.554;5.704;2023-11-19T08:47:40;26.53;;;6.07;;
50495;SDS011;38806;51.554;5.704;2023-11-19T08:49:40;34.83;;;6.72;;
50495;SDS011;38806;51.554;5.704;2023-11-19T08:51:40;29.10;;;7.90;;
50495;SDS011;38806;51.554;5.704;2023-11-19T08:53:41;26.92;;;9.25;;
50495;SDS011;38806;51.554;5.704;2023-11-19T08:55:41;24.15;;;6.85;;
50495;SDS011;38806;51.554;5.704;2023-11-19T08:57:42;26.02;;;6.90;;
50495;SDS011;38806;51.554;5.704;2023-11-19T08:59:42;23.77;;;7.75;;
50495;SDS011;38806;51.554;5.704;2023-11-19T09:01:42;23.55;;;7.72;;
50495;SDS011;38806;51.554;5.704;2023-11-19T09:03:42;28.13;;;6.57;;
50495;SDS011;38806;51.554;5.704;2023-11-19T09:05:42;32.05;;;7.45;;
50495;SDS011;38806;51.554;5.704;2023-11-19T09:07:43;25.67;;;10.18;;
50495;SDS011;38806;51.554;5.704;2023-11-19T09:09:43;32.75;;;8.70;;
50495;SDS011;38806;51.554;5.704;2023-11-19T09:11:43;26.87;;;7.63;;
50495;SDS011;38806;51.554;5.704;2023-11-19T09:13:44;26.42;;;6.32;;
50495;SDS011;38806;51.554;5.704;2023-11-19T09:15:45;21.48;;;8.18;;
50495;SDS011;38806;51.554;5.704;2023-11-19T09:17:45;19.83;;;6.45;;
50495;SDS011;38806;51.554;5.704;2023-11-19T09:19:45;26.67;;;7.70;;
50495;SDS011;38806;51.554;5.704;2023-11-19T09:21:46;28.65;;;7.55;;
50495;SDS011;38806;51.554;5.704;2023-11-19T09:23:48;20.02;;;7.82;;
50495;SDS011;38806;51.554;5.704;2023-11-19T09:25:49;22.00;;;8.02;;
50495;SDS011;38806;51.554;5.704;2023-11-19T09:27:49;30.40;;;9.38;;
50495;SDS011;38806;51.554;5.704;2023-11-19T09:29:50;31.20;;;10.80;;
50495;SDS011;38806;51.554;5.704;2023-11-19T09:31:54;23.67;;;7.85;;
50495;SDS011;38806;51.554;5.704;2023-11-19T09:33:55;17.65;;;7.55;;
50495;SDS011;38806;51.554;5.704;2023-11-19T09:35:55;17.77;;;5.93;;
50495;SDS011;38806;51.554;5.704;2023-11-19T09:37:55;27.92;;;7.40;;
50495;SDS011;38806;51.554;5.704;2023-11-19T09:39:55;23.23;;;7.22;;
50495;SDS011;38806;51.554;5.704;2023-11-19T09:41:56;22.25;;;6.53;;
50495;SDS011;38806;51.554;5.704;2023-11-19T09:43:58;29.80;;;9.77;;
50495;SDS011;38806;51.554;5.704;2023-11-19T09:45:58;20.33;;;6.50;;
50495;SDS011;38806;51.554;5.704;2023-11-19T09:48:05;19.95;;;6.10;;
50495;SDS011;38806;51.554;5.704;2023-11-19T09:50:05;30.80;;;7.80;;
50495;SDS011;38806;51.554;5.704;2023-11-19T09:52:06;25.13;;;6.60;;
50495;SDS011;38806;51.554;5.704;2023-11-19T09:54:06;22.15;;;6.32;;
50495;SDS011;38806;51.554;5.704;2023-11-19T09:56:07;28.77;;;6.15;;
50495;SDS011;38806;51.554;5.704;2023-11-19T09:58:10;23.73;;;7.45;;
50495;SDS011;38806;51.554;5.704;2023-11-19T10:00:12;27.40;;;7.30;;
50495;SDS011;38806;51.554;5.704;2023-11-19T10:02:15;27.55;;;6.88;;
50495;SDS011;38806;51.554;5.704;2023-11-19T10:04:15;27.88;;;8.00;;
50495;SDS011;38806;51.554;5.704;2023-11-19T10:06:15;30.77;;;7.63;;
50495;SDS011;38806;51.554;5.704;2023-11-19T10:08:16;32.55;;;9.20;;
50495;SDS011;38806;51.554;5.704;2023-11-19T10:10:17;24.92;;;7.97;;
50495;SDS011;38806;51.554;5.704;2023-11-19T10:12:18;23.50;;;7.35;;
50495;SDS011;38806;51.554;5.704;2023-11-19T10:14:19;20.55;;;6.38;;
50495;SDS011;38806;51.554;5.704;2023-11-19T10:16:27;28.38;;;6.47;;
50495;SDS011;38806;51.554;5.704;2023-11-19T10:18:28;33.67;;;5.93;;
50495;SDS011;38806;51.554;5.704;2023-11-19T10:20:28;30.52;;;7.28;;
50495;SDS011;38806;51.554;5.704;2023-11-19T10:22:28;22.02;;;6.38;;
50495;SDS011;38806;51.554;5.704;2023-11-19T10:24:32;22.00;;;6.60;;
50495;SDS011;38806;51.554;5.704;2023-11-19T10:26:36;28.90;;;8.88;;
50495;SDS011;38806;51.554;5.704;2023-11-19T10:28:39;22.25;;;8.18;;
50495;SDS011;38806;51.554;5.704;2023-11-19T10:30:40;20.35;;;6.60;;
50495;SDS011;38806;51.554;5.704;2023-11-19T10:32:41;22.70;;;5.78;;
50495;SDS011;38806;51.554;5.704;2023-11-19T10:34:41;29.37;;;7.57;;
50495;SDS011;38806;51.554;5.704;2023-11-19T10:36:43;21.13;;;7.38;;
50495;SDS011;38806;51.554;5.704;2023-11-19T10:38:53;24.88;;;7.28;;
50495;SDS011;38806;51.554;5.704;2023-11-19T10:40:54;30.63;;;6.60;;
50495;SDS011;38806;51.554;5.704;2023-11-19T10:43:02;33.28;;;6.70;;
50495;SDS011;38806;51.554;5.704;2023-11-19T10:45:03;28.60;;;6.75;;
50495;SDS011;38806;51.554;5.704;2023-11-19T10:47:05;20.63;;;7.20;;
50495;SDS011;38806;51.554;5.704;2023-11-19T10:49:08;19.30;;;5.80;;
50495;SDS011;38806;51.554;5.704;2023-11-19T10:51:08;21.77;;;7.00;;
50495;SDS011;38806;51.554;5.704;2023-11-19T10:53:11;22.75;;;5.82;;
50495;SDS011;38806;51.554;5.704;2023-11-19T10:55:14;22.67;;;7.60;;
50495;SDS011;38806;51.554;5.704;2023-11-19T10:57:16;29.48;;;5.97;;
50495;SDS011;38806;51.554;5.704;2023-11-19T10:59:19;26.05;;;7.30;;
50495;SDS011;38806;51.554;5.704;2023-11-19T11:01:21;25.15;;;6.70;;
50495;SDS011;38806;51.554;5.704;2023-11-19T11:03:27;22.27;;;6.28;;
50495;SDS011;38806;51.554;5.704;2023-11-19T11:05:32;19.48;;;6.32;;
50495;SDS011;38806;51.554;5.704;2023-11-19T11:07:33;17.63;;;5.05;;
50495;SDS011;38806;51.554;5.704;2023-11-19T11:09:33;27.02;;;6.18;;
50495;SDS011;38806;51.554;5.704;2023-11-19T11:11:34;22.38;;;6.72;;
50495;SDS011;38806;51.554;5.704;2023-11-19T11:13:34;23.83;;;5.20;;
50495;SDS011;38806;51.554;5.704;2023-11-19T11:15:36;17.77;;;4.80;;
50495;SDS011;38806;51.554;5.704;2023-11-19T11:17:37;27.75;;;7.32;;
50495;SDS011;38806;51.554;5.704;2023-11-19T11:19:38;21.25;;;6.57;;
50495;SDS011;38806;51.554;5.704;2023-11-19T11:21:40;19.98;;;6.18;;
50495;SDS011;38806;51.554;5.704;2023-11-19T11:32:24;20.20;;;5.30;;
50495;SDS011;38806;51.554;5.704;2023-11-19T11:36:28;26.00;;;5.88;;
50495;SDS011;38806;51.554;5.704;2023-11-19T11:38:30;21.90;;;5.75;;
50495;SDS011;38806;51.554;5.704;2023-11-19T11:40:36;15.55;;;5.57;;
50495;SDS011;38806;51.554;5.704;2023-11-19T11:42:36;40.70;;;10.18;;
50495;SDS011;38806;51.554;5.704;2023-11-19T11:44:57;32.58;;;8.05;;
50495;SDS011;38806;51.554;5.704;2023-11-19T11:46:57;17.08;;;5.38;;
50495;SDS011;38806;51.554;5.704;2023-11-19T11:49:01;15.77;;;5.45;;
50495;SDS011;38806;51.554;5.704;2023-11-19T11:51:03;19.02;;;5.10;;
50495;SDS011;38806;51.554;5.704;2023-11-19T11:55:05;28.02;;;7.60;;
50495;SDS011;38806;51.554;5.704;2023-11-19T11:57:10;18.40;;;6.50;;
50495;SDS011;38806;51.554;5.704;2023-11-19T11:59:19;16.05;;;5.30;;
50495;SDS011;38806;51.554;5.704;2023-11-19T12:01:19;18.10;;;5.32;;
50495;SDS011;38806;51.554;5.704;2023-11-19T12:03:21;16.58;;;4.43;;
50495;SDS011;38806;51.554;5.704;2023-11-19T12:05:22;15.38;;;6.07;;
50495;SDS011;38806;51.554;5.704;2023-11-19T12:07:23;25.70;;;5.30;;
50495;SDS011;38806;51.554;5.704;2023-11-19T12:09:23;17.95;;;5.22;;
50495;SDS011;38806;51.554;5.704;2023-11-19T12:11:24;17.08;;;6.20;;
50495;SDS011;38806;51.554;5.704;2023-11-19T12:13:53;16.85;;;5.13;;
50495;SDS011;38806;51.554;5.704;2023-11-19T12:33:30;14.75;;;3.95;;